sensor_id;sensor_type;location;lat;lon;timestamp;pressure;altitude;pressure_sealevel;temperature;humidity
4012;BME280;2020;48.682;9.024;2023-03-05T00:02:12;96681.81;;;1.03;78.79
4012;BME280;2020;48.682;9.024;2023-03-05T00:04:37;96681.81;;;1.03;78.88
4012;BME280;2020;48.682;9.024;2023-03-05T00:07:02;96681.81;;;1.03;79.43
4012;BME280;2020;48.682;9.024;2023-03-05T00:09:28;96686.00;;;1.04;78.69
4012;BME280;2020;48.682;9.024;2023-03-05T00:11:53;96688.56;;;1.04;78.67
4012;BME280;2020;48.682;9.024;2023-03-05T00:14:18;96674.84;;;1.05;78.56
4012;BME280;2020;48.682;9.024;2023-03-05T00:16:43;96685.09;;;1.05;78.38
4012;BME280;2020;48.682;9.024;2023-03-05T00:19:09;96682.34;;;1.08;78.67
4012;BME280;2020;48.682;9.024;2023-03-05T00:21:37;96676.69;;;1.03;78.79
4012;BME280;2020;48.682;9.024;2023-03-05T00:24:05;96678.31;;;1.04;78.98
4012;BME280;2020;48.682;9.024;2023-03-05T00:26:34;96679.13;;;1.05;78.83
4012;BME280;2020;48.682;9.024;2023-03-05T00:29:01;96670.81;;;1.01;78.39
4012;BME280;2020;48.682;9.024;2023-03-05T00:31:28;96670.09;;;0.99;77.93
4012;BME280;2020;48.682;9.024;2023-03-05T00:33:57;96670.72;;;1.02;78.18
4012;BME280;2020;48.682;9.024;2023-03-05T00:36:24;96664.97;;;0.99;78.53
4012;BME280;2020;48.682;9.024;2023-03-05T00:38:50;96668.25;;;1.01;78.43
4012;BME280;2020;48.682;9.024;2023-03-05T00:41:16;96666.59;;;1.00;78.09
4012;BME280;2020;48.682;9.024;2023-03-05T00:43:41;96665.69;;;1.01;78.03
4012;BME280;2020;48.682;9.024;2023-03-05T00:46:06;96666.41;;;1.03;78.07
4012;BME280;2020;48.682;9.024;2023-03-05T00:48:32;96660.56;;;1.01;78.02
4012;BME280;2020;48.682;9.024;2023-03-05T00:50:57;96664.78;;;1.02;78.66
4012;BME280;2020;48.682;9.024;2023-03-05T00:53:22;96656.53;;;0.97;78.09
4012;BME280;2020;48.682;9.024;2023-03-05T00:55:47;96654.69;;;0.99;78.73
4012;BME280;2020;48.682;9.024;2023-03-05T00:58:13;96656.72;;;0.94;79.26
4012;BME280;2020;48.682;9.024;2023-03-05T01:00:39;96653.41;;;0.92;79.55
4012;BME280;2020;48.682;9.024;2023-03-05T01:03:04;96648.19;;;0.93;79.17
4012;BME280;2020;48.682;9.024;2023-03-05T01:05:29;96645.00;;;0.90;79.34
4012;BME280;2020;48.682;9.024;2023-03-05T01:07:56;96645.91;;;0.74;79.59
4012;BME280;2020;48.682;9.024;2023-03-05T01:10:22;96645.97;;;0.72;79.71
4012;BME280;2020;48.682;9.024;2023-03-05T01:12:51;96646.72;;;0.75;81.11
4012;BME280;2020;48.682;9.024;2023-03-05T01:15:17;96638.22;;;0.74;81.10
4012;BME280;2020;48.682;9.024;2023-03-05T01:17:42;96643.16;;;0.77;81.85
4012;BME280;2020;48.682;9.024;2023-03-05T01:20:11;96635.47;;;0.77;82.46
4012;BME280;2020;48.682;9.024;2023-03-05T01:22:36;96639.50;;;0.81;81.50
4012;BME280;2020;48.682;9.024;2023-03-05T01:25:01;96632.00;;;0.78;82.07
4012;BME280;2020;48.682;9.024;2023-03-05T01:27:27;96633.47;;;0.82;81.24
4012;BME280;2020;48.682;9.024;2023-03-05T01:29:52;96621.75;;;0.78;81.17
4012;BME280;2020;48.682;9.024;2023-03-05T01:32:17;96620.34;;;0.72;82.10
4012;BME280;2020;48.682;9.024;2023-03-05T01:34:42;96627.06;;;0.75;81.58
4012;BME280;2020;48.682;9.024;2023-03-05T01:37:08;96625.41;;;0.74;81.65
4012;BME280;2020;48.682;9.024;2023-03-05T01:39:33;96627.06;;;0.75;81.91
4012;BME280;2020;48.682;9.024;2023-03-05T01:42:00;96622.84;;;0.74;81.86
4012;BME280;2020;48.682;9.024;2023-03-05T01:44:27;96617.16;;;0.69;81.43
4012;BME280;2020;48.682;9.024;2023-03-05T01:46:53;96618.81;;;0.70;80.87
4012;BME280;2020;48.682;9.024;2023-03-05T01:49:29;96615.97;;;0.75;81.40
4012;BME280;2020;48.682;9.024;2023-03-05T01:52:01;96613.50;;;0.73;80.92
4012;BME280;2020;48.682;9.024;2023-03-05T01:54:31;96611.75;;;0.73;81.29
4012;BME280;2020;48.682;9.024;2023-03-05T01:57:01;96598.13;;;0.73;81.65
4012;BME280;2020;48.682;9.024;2023-03-05T01:59:29;96597.41;;;0.71;82.01
4012;BME280;2020;48.682;9.024;2023-03-05T02:01:56;96598.88;;;0.75;81.40
4012;BME280;2020;48.682;9.024;2023-03-05T02:04:27;96593.00;;;0.73;81.67
4012;BME280;2020;48.682;9.024;2023-03-05T02:06:55;96589.72;;;0.71;81.62
4012;BME280;2020;48.682;9.024;2023-03-05T02:09:20;96588.06;;;0.70;82.17
4012;BME280;2020;48.682;9.024;2023-03-05T02:11:48;96584.78;;;0.68;82.30
4012;BME280;2020;48.682;9.024;2023-03-05T02:14:13;96585.50;;;0.70;82.04
4012;BME280;2020;48.682;9.024;2023-03-05T02:16:39;96582.94;;;0.70;82.41
4012;BME280;2020;48.682;9.024;2023-03-05T02:19:07;96580.38;;;0.70;82.32
4012;BME280;2020;48.682;9.024;2023-03-05T02:21:42;96584.41;;;0.74;82.26
4012;BME280;2020;48.682;9.024;2023-03-05T02:24:12;96577.44;;;0.76;82.30
4012;BME280;2020;48.682;9.024;2023-03-05T02:26:38;96567.28;;;0.75;82.77
4012;BME280;2020;48.682;9.024;2023-03-05T02:29:05;96568.19;;;0.73;82.84
4012;BME280;2020;48.682;9.024;2023-03-05T02:31:32;96565.38;;;0.78;82.92
4012;BME280;2020;48.682;9.024;2023-03-05T02:33:58;96569.59;;;0.79;82.91
4012;BME280;2020;48.682;9.024;2023-03-05T02:36:23;96561.91;;;0.79;81.51
4012;BME280;2020;48.682;9.024;2023-03-05T02:38:48;96563.53;;;0.80;81.27
4012;BME280;2020;48.682;9.024;2023-03-05T02:41:14;96561.91;;;0.79;81.22
4012;BME280;2020;48.682;9.024;2023-03-05T02:43:40;96556.59;;;0.82;81.12
4012;BME280;2020;48.682;9.024;2023-03-05T02:46:06;96550.25;;;0.88;81.15
4012;BME280;2020;48.682;9.024;2023-03-05T02:48:31;96548.53;;;0.89;81.46
4012;BME280;2020;48.682;9.024;2023-03-05T02:50:57;96550.91;;;0.92;81.17
4012;BME280;2020;48.682;9.024;2023-03-05T02:53:22;96548.34;;;0.92;81.40
4012;BME280;2020;48.682;9.024;2023-03-05T02:55:48;96552.72;;;0.90;81.13
4012;BME280;2020;48.682;9.024;2023-03-05T02:58:14;96543.09;;;0.93;81.49
4012;BME280;2020;48.682;9.024;2023-03-05T03:00:39;96540.66;;;0.92;81.84
4012;BME280;2020;48.682;9.024;2023-03-05T03:03:04;96539.38;;;0.84;82.39
4012;BME280;2020;48.682;9.024;2023-03-05T03:05:30;96533.22;;;0.87;81.78
4012;BME280;2020;48.682;9.024;2023-03-05T03:07:55;96535.91;;;0.85;81.48
4012;BME280;2020;48.682;9.024;2023-03-05T03:10:20;96530.78;;;0.85;82.28
4012;BME280;2020;48.682;9.024;2023-03-05T03:12:46;96525.53;;;0.87;82.13
4012;BME280;2020;48.682;9.024;2023-03-05T03:15:13;96527.09;;;0.90;81.91
4012;BME280;2020;48.682;9.024;2023-03-05T03:17:39;96522.16;;;0.86;81.91
4012;BME280;2020;48.682;9.024;2023-03-05T03:20:07;96524.44;;;0.91;82.28
4012;BME280;2020;48.682;9.024;2023-03-05T03:22:33;96525.28;;;0.92;82.68
4012;BME280;2020;48.682;9.024;2023-03-05T03:24:59;96518.50;;;0.91;82.49
4012;BME280;2020;48.682;9.024;2023-03-05T03:27:24;96518.69;;;0.87;83.30
4012;BME280;2020;48.682;9.024;2023-03-05T03:29:49;96524.44;;;0.91;82.84
4012;BME280;2020;48.682;9.024;2023-03-05T03:32:15;96514.28;;;0.90;83.08
4012;BME280;2020;48.682;9.024;2023-03-05T03:34:40;96516.00;;;0.89;83.07
4012;BME280;2020;48.682;9.024;2023-03-05T03:37:06;96509.88;;;0.92;83.21
4012;BME280;2020;48.682;9.024;2023-03-05T03:39:32;96511.19;;;0.84;83.47
4012;BME280;2020;48.682;9.024;2023-03-05T03:41:57;96512.63;;;0.89;83.50
4012;BME280;2020;48.682;9.024;2023-03-05T03:44:23;96513.63;;;0.86;84.00
4012;BME280;2020;48.682;9.024;2023-03-05T03:46:49;96503.13;;;0.91;83.77
4012;BME280;2020;48.682;9.024;2023-03-05T03:49:23;96507.22;;;0.93;83.83
4012;BME280;2020;48.682;9.024;2023-03-05T03:51:50;96495.97;;;0.96;84.43
4012;BME280;2020;48.682;9.024;2023-03-05T03:54:17;96496.34;;;0.90;83.97
4012;BME280;2020;48.682;9.024;2023-03-05T03:56:43;96494.69;;;0.89;83.82
4012;BME280;2020;48.682;9.024;2023-03-05T03:59:09;96499.63;;;0.92;84.39
4012;BME280;2020;48.682;9.024;2023-03-05T04:01:34;96489.47;;;0.90;84.51
4012;BME280;2020;48.682;9.024;2023-03-05T04:04:00;96487.56;;;0.94;84.91
4012;BME280;2020;48.682;9.024;2023-03-05T04:06:25;96486.72;;;0.93;85.14
4012;BME280;2020;48.682;9.024;2023-03-05T04:08:51;96492.88;;;0.91;84.69
4012;BME280;2020;48.682;9.024;2023-03-05T04:11:16;96490.75;;;0.83;84.77
4012;BME280;2020;48.682;9.024;2023-03-05T04:13:44;96492.91;;;0.76;85.80
4012;BME280;2020;48.682;9.024;2023-03-05T04:16:09;96488.50;;;0.78;86.24
4012;BME280;2020;48.682;9.024;2023-03-05T04:18:34;96483.38;;;0.78;86.32
4012;BME280;2020;48.682;9.024;2023-03-05T04:20:59;96484.91;;;0.81;86.45
4012;BME280;2020;48.682;9.024;2023-03-05T04:23:25;96488.69;;;0.75;86.04
4012;BME280;2020;48.682;9.024;2023-03-05T04:25:50;96482.28;;;0.68;86.90
4012;BME280;2020;48.682;9.024;2023-03-05T04:28:15;96487.22;;;0.71;87.29
4012;BME280;2020;48.682;9.024;2023-03-05T04:30:42;96481.81;;;0.76;86.87
4012;BME280;2020;48.682;9.024;2023-03-05T04:33:07;96478.44;;;0.75;87.26
4012;BME280;2020;48.682;9.024;2023-03-05T04:35:32;96476.78;;;0.74;87.12
4012;BME280;2020;48.682;9.024;2023-03-05T04:37:57;96477.53;;;0.76;86.76
4012;BME280;2020;48.682;9.024;2023-03-05T04:40:23;96468.28;;;0.73;87.02
4012;BME280;2020;48.682;9.024;2023-03-05T04:42:48;96471.66;;;0.74;87.13
4012;BME280;2020;48.682;9.024;2023-03-05T04:45:13;96481.06;;;0.73;87.07
4012;BME280;2020;48.682;9.024;2023-03-05T04:47:41;96475.69;;;0.78;86.49
4012;BME280;2020;48.682;9.024;2023-03-05T04:50:07;96468.00;;;0.78;86.66
4012;BME280;2020;48.682;9.024;2023-03-05T04:52:32;96466.53;;;0.74;86.72
4012;BME280;2020;48.682;9.024;2023-03-05T04:54:57;96456.09;;;0.77;86.94
4012;BME280;2020;48.682;9.024;2023-03-05T04:57:23;96461.03;;;0.80;86.47
4012;BME280;2020;48.682;9.024;2023-03-05T04:59:48;96462.16;;;0.76;87.12
4012;BME280;2020;48.682;9.024;2023-03-05T05:02:13;96458.66;;;0.77;87.12
4012;BME280;2020;48.682;9.024;2023-03-05T05:04:39;96463.97;;;0.74;87.21
4012;BME280;2020;48.682;9.024;2023-03-05T05:07:04;96451.91;;;0.76;87.66
4012;BME280;2020;48.682;9.024;2023-03-05T05:09:32;96457.03;;;0.76;87.56
4012;BME280;2020;48.682;9.024;2023-03-05T05:11:57;96454.06;;;0.82;nan
4012;BME280;2020;48.682;9.024;2023-03-05T05:14:22;96448.13;;;0.82;87.20
4012;BME280;2020;48.682;9.024;2023-03-05T05:16:47;96454.28;;;0.79;86.68
4012;BME280;2020;48.682;9.024;2023-03-05T05:19:13;96449.16;;;0.79;87.04
4012;BME280;2020;48.682;9.024;2023-03-05T05:21:38;96440.00;;;0.75;86.55
4012;BME280;2020;48.682;9.024;2023-03-05T05:24:04;96448.69;;;0.72;87.27
4012;BME280;2020;48.682;9.024;2023-03-05T05:26:29;96451.16;;;0.74;86.89
4012;BME280;2020;48.682;9.024;2023-03-05T05:28:54;96445.84;;;0.77;86.93
4012;BME280;2020;48.682;9.024;2023-03-05T05:31:20;96445.84;;;0.77;87.11
4012;BME280;2020;48.682;9.024;2023-03-05T05:33:45;96451.78;;;0.78;87.12
4012;BME280;2020;48.682;9.024;2023-03-05T05:36:13;96442.38;;;0.78;86.77
4012;BME280;2020;48.682;9.024;2023-03-05T05:38:39;96445.66;;;0.80;87.41
4012;BME280;2020;48.682;9.024;2023-03-05T05:41:09;96451.59;;;0.81;87.21
4012;BME280;2020;48.682;9.024;2023-03-05T05:43:35;96454.06;;;0.82;86.88
4012;BME280;2020;48.682;9.024;2023-03-05T05:46:02;96454.28;;;0.79;86.77
4012;BME280;2020;48.682;9.024;2023-03-05T05:48:30;96449.88;;;0.81;87.00
4012;BME280;2020;48.682;9.024;2023-03-05T05:50:55;96449.75;;;0.83;87.10
4012;BME280;2020;48.682;9.024;2023-03-05T05:53:21;96457.44;;;0.83;87.13
4012;BME280;2020;48.682;9.024;2023-03-05T05:55:47;96451.41;;;0.84;87.04
4012;BME280;2020;48.682;9.024;2023-03-05T05:58:12;96446.47;;;0.81;87.25
4012;BME280;2020;48.682;9.024;2023-03-05T06:00:38;96451.41;;;0.84;87.83
4012;BME280;2020;48.682;9.024;2023-03-05T06:03:03;96453.88;;;0.85;87.15
4012;BME280;2020;48.682;9.024;2023-03-05T06:05:28;96447.13;;;0.84;87.17
4012;BME280;2020;48.682;9.024;2023-03-05T06:07:53;96452.44;;;0.81;87.58
4012;BME280;2020;48.682;9.024;2023-03-05T06:10:19;96446.78;;;0.76;88.24
4012;BME280;2020;48.682;9.024;2023-03-05T06:12:44;96441.47;;;0.79;87.95
4012;BME280;2020;48.682;9.024;2023-03-05T06:15:09;96448.03;;;0.83;87.42
4012;BME280;2020;48.682;9.024;2023-03-05T06:17:35;96447.13;;;0.84;87.99
4012;BME280;2020;48.682;9.024;2023-03-05T06:20:00;96446.41;;;0.82;88.07
4012;BME280;2020;48.682;9.024;2023-03-05T06:22:26;96447.13;;;0.84;87.00
4012;BME280;2020;48.682;9.024;2023-03-05T06:24:51;96447.94;;;0.85;86.77
4012;BME280;2020;48.682;9.024;2023-03-05T06:27:16;96447.13;;;0.84;87.10
4012;BME280;2020;48.682;9.024;2023-03-05T06:29:42;96442.59;;;0.88;87.01
4012;BME280;2020;48.682;9.024;2023-03-05T06:32:07;96441.06;;;0.85;87.64
4012;BME280;2020;48.682;9.024;2023-03-05T06:34:32;96450.41;;;0.86;87.26
4012;BME280;2020;48.682;9.024;2023-03-05T06:36:58;96439.97;;;0.90;86.90
4012;BME280;2020;48.682;9.024;2023-03-05T06:39:23;96440.88;;;0.89;86.70
4012;BME280;2020;48.682;9.024;2023-03-05T06:41:51;96445.09;;;0.90;86.86
4012;BME280;2020;48.682;9.024;2023-03-05T06:44:16;96442.41;;;0.91;87.09
4012;BME280;2020;48.682;9.024;2023-03-05T06:46:42;96440.56;;;0.93;86.92
4012;BME280;2020;48.682;9.024;2023-03-05T06:49:07;96443.25;;;0.92;87.31
4012;BME280;2020;48.682;9.024;2023-03-05T06:51:36;96441.50;;;0.92;87.29
4012;BME280;2020;48.682;9.024;2023-03-05T06:54:05;96438.84;;;0.94;87.47
4012;BME280;2020;48.682;9.024;2023-03-05T06:56:34;96440.38;;;0.96;87.58
4012;BME280;2020;48.682;9.024;2023-03-05T06:58:59;96431.97;;;0.94;87.30
4012;BME280;2020;48.682;9.024;2023-03-05T07:01:25;96427.50;;;0.98;87.33
4012;BME280;2020;48.682;9.024;2023-03-05T07:03:52;96439.19;;;1.02;87.76
4012;BME280;2020;48.682;9.024;2023-03-05T07:06:17;96440.66;;;1.06;86.66
4012;BME280;2020;48.682;9.024;2023-03-05T07:08:43;96434.88;;;1.02;87.83
4012;BME280;2020;48.682;9.024;2023-03-05T07:11:13;96431.59;;;1.00;87.51
4012;BME280;2020;48.682;9.024;2023-03-05T07:13:39;96431.38;;;1.04;87.11
4012;BME280;2020;48.682;9.024;2023-03-05T07:16:10;96429.56;;;1.06;87.34
4012;BME280;2020;48.682;9.024;2023-03-05T07:18:37;96440.66;;;1.06;86.86
4012;BME280;2020;48.682;9.024;2023-03-05T07:21:04;96427.91;;;1.05;86.52
4012;BME280;2020;48.682;9.024;2023-03-05T07:23:29;96433.69;;;1.08;87.09
4012;BME280;2020;48.682;9.024;2023-03-05T07:25:55;96431.84;;;1.10;87.12
4012;BME280;2020;48.682;9.024;2023-03-05T07:28:20;96431.66;;;1.13;86.64
4012;BME280;2020;48.682;9.024;2023-03-05T07:30:54;96427.97;;;1.17;85.98
4012;BME280;2020;48.682;9.024;2023-03-05T07:33:20;96421.00;;;1.20;86.94
4012;BME280;2020;48.682;9.024;2023-03-05T07:35:45;96425.94;;;1.23;86.52
4012;BME280;2020;48.682;9.024;2023-03-05T07:38:10;96429.22;;;1.25;86.20
4012;BME280;2020;48.682;9.024;2023-03-05T07:40:35;96419.88;;;1.24;86.72
4012;BME280;2020;48.682;9.024;2023-03-05T07:43:01;96415.28;;;1.29;85.69
4012;BME280;2020;48.682;9.024;2023-03-05T07:45:26;96421.84;;;1.33;85.28
4012;BME280;2020;48.682;9.024;2023-03-05T07:47:51;96415.59;;;1.37;85.85
4012;BME280;2020;48.682;9.024;2023-03-05T07:50:17;96409.75;;;1.35;85.02
4012;BME280;2020;48.682;9.024;2023-03-05T07:52:42;96422.28;;;1.40;85.43
4012;BME280;2020;48.682;9.024;2023-03-05T07:55:08;96414.06;;;1.35;84.60
4012;BME280;2020;48.682;9.024;2023-03-05T07:57:33;96418.38;;;1.34;85.05
4012;BME280;2020;48.682;9.024;2023-03-05T08:00:02;96416.91;;;1.30;85.49
4012;BME280;2020;48.682;9.024;2023-03-05T08:02:28;96414.16;;;1.33;85.13
4012;BME280;2020;48.682;9.024;2023-03-05T08:04:54;96413.75;;;1.39;84.89
4012;BME280;2020;48.682;9.024;2023-03-05T08:07:19;96417.97;;;1.40;84.69
4012;BME280;2020;48.682;9.024;2023-03-05T08:09:44;96412.63;;;1.43;84.10
4012;BME280;2020;48.682;9.024;2023-03-05T08:12:09;96414.28;;;1.44;84.42
4012;BME280;2020;48.682;9.024;2023-03-05T08:14:35;96411.63;;;1.46;84.20
4012;BME280;2020;48.682;9.024;2023-03-05T08:17:02;96409.78;;;1.48;84.39
4012;BME280;2020;48.682;9.024;2023-03-05T08:19:28;96414.59;;;1.53;84.18
4012;BME280;2020;48.682;9.024;2023-03-05T08:21:53;96413.69;;;1.54;83.42
4012;BME280;2020;48.682;9.024;2023-03-05T08:24:18;96418.59;;;1.57;83.47
4012;BME280;2020;48.682;9.024;2023-03-05T08:26:43;96415.03;;;1.59;84.18
4012;BME280;2020;48.682;9.024;2023-03-05T08:29:09;96413.47;;;1.57;84.02
4012;BME280;2020;48.682;9.024;2023-03-05T08:31:34;96407.22;;;1.61;83.76
4012;BME280;2020;48.682;9.024;2023-03-05T08:34:00;96407.94;;;1.63;84.04
4012;BME280;2020;48.682;9.024;2023-03-05T08:36:27;96412.88;;;1.66;83.62
4012;BME280;2020;48.682;9.024;2023-03-05T08:38:53;96412.06;;;1.66;83.45
4012;BME280;2020;48.682;9.024;2023-03-05T08:41:18;96414.50;;;1.67;82.89
4012;BME280;2020;48.682;9.024;2023-03-05T08:43:43;96409.38;;;1.67;82.54
4012;BME280;2020;48.682;9.024;2023-03-05T08:46:11;96407.53;;;1.69;82.94
4012;BME280;2020;48.682;9.024;2023-03-05T08:48:36;96403.66;;;1.64;82.48
4012;BME280;2020;48.682;9.024;2023-03-05T08:51:13;96394.19;;;1.64;82.40
4012;BME280;2020;48.682;9.024;2023-03-05T08:53:39;96397.28;;;1.69;82.28
4012;BME280;2020;48.682;9.024;2023-03-05T08:56:05;96408.78;;;1.77;82.52
4012;BME280;2020;48.682;9.024;2023-03-05T08:58:31;96402.50;;;1.81;82.59
4012;BME280;2020;48.682;9.024;2023-03-05T09:00:56;96399.94;;;1.81;81.53
4012;BME280;2020;48.682;9.024;2023-03-05T09:03:22;96397.09;;;1.85;81.21
4012;BME280;2020;48.682;9.024;2023-03-05T09:05:47;96388.47;;;1.86;81.11
4012;BME280;2020;48.682;9.024;2023-03-05T09:08:13;96395.63;;;1.94;81.38
4012;BME280;2020;48.682;9.024;2023-03-05T09:10:40;96391.75;;;2.01;81.15
4012;BME280;2020;48.682;9.024;2023-03-05T09:13:06;96389.38;;;1.98;79.98
4012;BME280;2020;48.682;9.024;2023-03-05T09:15:31;96388.25;;;2.02;80.39
4012;BME280;2020;48.682;9.024;2023-03-05T09:17:57;96381.56;;;2.13;81.18
4012;BME280;2020;48.682;9.024;2023-03-05T09:20:23;96383.50;;;2.22;80.38
4012;BME280;2020;48.682;9.024;2023-03-05T09:22:48;96381.66;;;2.24;79.62
4012;BME280;2020;48.682;9.024;2023-03-05T09:25:14;96384.00;;;2.27;78.74
4012;BME280;2020;48.682;9.024;2023-03-05T09:27:39;96374.88;;;2.23;78.10
4012;BME280;2020;48.682;9.024;2023-03-05T09:30:05;96378.88;;;2.27;79.24
4012;BME280;2020;48.682;9.024;2023-03-05T09:32:31;96370.75;;;2.33;78.48
4012;BME280;2020;48.682;9.024;2023-03-05T09:34:56;96366.59;;;2.44;77.92
4012;BME280;2020;48.682;9.024;2023-03-05T09:37:22;96359.41;;;2.49;78.14
4012;BME280;2020;48.682;9.024;2023-03-05T09:39:47;96360.81;;;2.53;77.54
4012;BME280;2020;48.682;9.024;2023-03-05T09:42:36;96362.56;;;2.53;76.13
4012;BME280;2020;48.682;9.024;2023-03-05T09:45:18;96362.91;;;2.48;77.08
4012;BME280;2020;48.682;9.024;2023-03-05T09:50:37;96357.75;;;2.48;77.16
4012;BME280;2020;48.682;9.024;2023-03-05T09:53:16;96356.28;;;2.57;76.56
4012;BME280;2020;48.682;9.024;2023-03-05T09:55:56;96351.97;;;2.57;75.54
4012;BME280;2020;48.682;9.024;2023-03-05T09:58:38;96346.00;;;2.57;76.52
4012;BME280;2020;48.682;9.024;2023-03-05T10:04:13;96343.91;;;2.62;76.37
4012;BME280;2020;48.682;9.024;2023-03-05T10:06:54;96342.88;;;2.65;76.34
4012;BME280;2020;48.682;9.024;2023-03-05T10:09:43;96345.16;;;2.69;75.79
4012;BME280;2020;48.682;9.024;2023-03-05T10:14:57;96330.56;;;2.57;75.55
4012;BME280;2020;48.682;9.024;2023-03-05T10:17:34;96335.13;;;2.53;75.74
4012;BME280;2020;48.682;9.024;2023-03-05T10:25:49;96333.81;;;2.72;74.09
4012;BME280;2020;48.682;9.024;2023-03-05T10:28:28;96333.50;;;2.76;74.01
4012;BME280;2020;48.682;9.024;2023-03-05T10:31:35;96330.09;;;2.76;74.08
4012;BME280;2020;48.682;9.024;2023-03-05T10:42:42;96309.03;;;2.95;74.14
4012;BME280;2020;48.682;9.024;2023-03-05T10:45:37;96312.84;;;2.89;73.82
4012;BME280;2020;48.682;9.024;2023-03-05T10:48:05;96306.78;;;2.90;73.61
4012;BME280;2020;48.682;9.024;2023-03-05T10:50:44;96303.88;;;2.95;73.71
4012;BME280;2020;48.682;9.024;2023-03-05T10:55:44;96294.41;;;2.96;71.55
4012;BME280;2020;48.682;9.024;2023-03-05T10:58:14;96296.03;;;2.97;70.78
4012;BME280;2020;48.682;9.024;2023-03-05T11:01:19;96291.75;;;2.97;71.66
4012;BME280;2020;48.682;9.024;2023-03-05T11:06:42;96284.97;;;2.96;71.01
4012;BME280;2020;48.682;9.024;2023-03-05T11:14:27;96284.78;;;2.86;70.58
4012;BME280;2020;48.682;9.024;2023-03-05T11:16:58;96282.34;;;2.85;70.99
4012;BME280;2020;48.682;9.024;2023-03-05T11:19:27;96272.66;;;2.88;70.68
4012;BME280;2020;48.682;9.024;2023-03-05T11:24:31;96273.09;;;2.82;69.96
4012;BME280;2020;48.682;9.024;2023-03-05T11:26:58;96270.03;;;2.77;70.33
4012;BME280;2020;48.682;9.024;2023-03-05T11:29:29;96274.97;;;2.80;70.03
4012;BME280;2020;48.682;9.024;2023-03-05T11:31:55;96271.25;;;2.84;69.57
4012;BME280;2020;48.682;9.024;2023-03-05T11:34:38;96263.03;;;2.79;70.41
4012;BME280;2020;48.682;9.024;2023-03-05T11:37:05;96264.91;;;2.77;70.88
4012;BME280;2020;48.682;9.024;2023-03-05T11:39:33;96262.56;;;2.74;70.01
4012;BME280;2020;48.682;9.024;2023-03-05T11:42:12;96263.72;;;2.70;69.11
4012;BME280;2020;48.682;9.024;2023-03-05T11:44:45;96256.94;;;2.69;69.63
4012;BME280;2020;48.682;9.024;2023-03-05T11:52:46;96249.13;;;2.70;70.83
4012;BME280;2020;48.682;9.024;2023-03-05T11:55:30;96244.09;;;2.69;70.86
4012;BME280;2020;48.682;9.024;2023-03-05T12:00:45;96235.56;;;2.68;71.78
4012;BME280;2020;48.682;9.024;2023-03-05T12:03:15;96238.00;;;2.70;71.82
4012;BME280;2020;48.682;9.024;2023-03-05T12:05:44;96235.00;;;2.76;72.05
4012;BME280;2020;48.682;9.024;2023-03-05T12:08:14;96230.56;;;2.78;72.48
4012;BME280;2020;48.682;9.024;2023-03-05T12:10:41;96233.34;;;2.75;72.05
4012;BME280;2020;48.682;9.024;2023-03-05T12:13:22;96222.97;;;2.76;72.73
4012;BME280;2020;48.682;9.024;2023-03-05T12:16:05;96224.94;;;2.73;72.45
4012;BME280;2020;48.682;9.024;2023-03-05T12:18:47;96219.09;;;2.71;73.30
4012;BME280;2020;48.682;9.024;2023-03-05T12:21:41;96213.22;;;2.57;72.62
4012;BME280;2020;48.682;9.024;2023-03-05T12:27:13;96208.06;;;2.57;72.68
4012;BME280;2020;48.682;9.024;2023-03-05T12:29:48;96205.47;;;2.46;73.06
4012;BME280;2020;48.682;9.024;2023-03-05T12:34:55;96203.38;;;2.51;72.97
4012;BME280;2020;48.682;9.024;2023-03-05T12:47:39;96184.06;;;2.45;73.51
4012;BME280;2020;48.682;9.024;2023-03-05T12:58:11;96165.09;;;2.59;73.84
4012;BME280;2020;48.682;9.024;2023-03-05T13:00:59;96163.22;;;2.61;73.70
4012;BME280;2020;48.682;9.024;2023-03-05T13:03:30;96166.03;;;2.58;73.57
4012;BME280;2020;48.682;9.024;2023-03-05T13:05:58;96166.97;;;2.57;73.47
4012;BME280;2020;48.682;9.024;2023-03-05T13:08:26;96163.69;;;2.55;73.30
4012;BME280;2020;48.682;9.024;2023-03-05T13:10:57;96161.13;;;2.55;73.81
4012;BME280;2020;48.682;9.024;2023-03-05T13:13:26;96161.59;;;2.60;74.46
4012;BME280;2020;48.682;9.024;2023-03-05T13:15:52;96159.94;;;2.59;73.99
4012;BME280;2020;48.682;9.024;2023-03-05T13:18:20;96153.88;;;2.60;73.77
4012;BME280;2020;48.682;9.024;2023-03-05T13:20:46;96152.78;;;2.52;73.92
4012;BME280;2020;48.682;9.024;2023-03-05T13:23:20;96153.19;;;2.58;73.56
4012;BME280;2020;48.682;9.024;2023-03-05T13:28:26;96145.47;;;2.58;74.12
4012;BME280;2020;48.682;9.024;2023-03-05T13:31:00;96144.31;;;2.62;73.53
4012;BME280;2020;48.682;9.024;2023-03-05T13:33:31;96138.94;;;2.66;73.16
4012;BME280;2020;48.682;9.024;2023-03-05T13:35:57;96141.75;;;2.74;73.26
4012;BME280;2020;48.682;9.024;2023-03-05T13:38:35;96134.50;;;2.68;72.94
4012;BME280;2020;48.682;9.024;2023-03-05T13:41:26;96127.25;;;2.61;72.76
4012;BME280;2020;48.682;9.024;2023-03-05T13:43:57;96132.53;;;2.71;73.16
4012;BME280;2020;48.682;9.024;2023-03-05T13:46:36;96131.72;;;2.71;72.75
4012;BME280;2020;48.682;9.024;2023-03-05T13:49:23;96127.97;;;2.75;72.65
4012;BME280;2020;48.682;9.024;2023-03-05T13:51:54;96130.09;;;2.81;72.42
4012;BME280;2020;48.682;9.024;2023-03-05T13:54:20;96133.81;;;2.77;72.29
4012;BME280;2020;48.682;9.024;2023-03-05T13:56:57;96122.59;;;2.78;72.13
4012;BME280;2020;48.682;9.024;2023-03-05T13:59:25;96119.69;;;2.83;72.46
4012;BME280;2020;48.682;9.024;2023-03-05T14:01:53;96117.13;;;2.83;71.85
4012;BME280;2020;48.682;9.024;2023-03-05T14:06:58;96111.63;;;2.87;72.06
4012;BME280;2020;48.682;9.024;2023-03-05T14:09:27;96106.47;;;2.87;71.10
4012;BME280;2020;48.682;9.024;2023-03-05T14:14:45;96109.03;;;2.76;71.04
4012;BME280;2020;48.682;9.024;2023-03-05T14:17:40;96105.78;;;2.74;71.68
4012;BME280;2020;48.682;9.024;2023-03-05T14:22:40;96097.13;;;2.75;71.81
4012;BME280;2020;48.682;9.024;2023-03-05T14:27:49;96092.81;;;2.75;71.00
4012;BME280;2020;48.682;9.024;2023-03-05T14:30:16;96090.81;;;2.68;71.01
4012;BME280;2020;48.682;9.024;2023-03-05T14:32:43;96085.69;;;2.68;71.29
4012;BME280;2020;48.682;9.024;2023-03-05T14:35:16;96080.53;;;2.68;70.67
4012;BME280;2020;48.682;9.024;2023-03-05T14:37:45;96081.94;;;2.60;71.10
4012;BME280;2020;48.682;9.024;2023-03-05T14:43:03;96077.97;;;2.56;71.26
4012;BME280;2020;48.682;9.024;2023-03-05T14:45:32;96069.53;;;2.54;71.54
4012;BME280;2020;48.682;9.024;2023-03-05T14:48:00;96071.63;;;2.49;71.82
4012;BME280;2020;48.682;9.024;2023-03-05T14:50:46;96057.88;;;2.50;71.59
4012;BME280;2020;48.682;9.024;2023-03-05T14:53:18;96056.22;;;2.49;71.77
4012;BME280;2020;48.682;9.024;2023-03-05T14:55:47;96055.41;;;2.48;71.95
4012;BME280;2020;48.682;9.024;2023-03-05T14:58:19;96057.41;;;2.56;71.77
4012;BME280;2020;48.682;9.024;2023-03-05T15:00:46;96046.06;;;2.59;71.85
4012;BME280;2020;48.682;9.024;2023-03-05T15:03:14;96043.63;;;2.57;72.06